Terminal Aerodrome Forecast
Issued by NWS

Home | Current Version | Previous Version | Text Only | Print | Product List | Glossary On
Versions: 1 2 3 4 5 6 7 8 9 10 11
000
FTUS44 KBMX 280700 AAA
TAFTCL
TAF AMD
KTCL 280733Z 2808/2906 12007KT 2SM RA BR BKN005 OVC040
      TEMPO 2810/2813 4SM -RA BR BKN003 OVC015
     FM281500 25006KT 5SM SHRA BR OVC007=

USA.gov is the U.S. government's official web portal to all federal, state and local government web resources and services.